sensor_id;sensor_type;location;lat;lon;timestamp;temperature;humidity
55771;DHT22;41687;-33.234;-60.334;2023-12-22T00:00:36;23.90;74.90
55771;DHT22;41687;-33.234;-60.334;2023-12-22T00:03:04;23.90;75.00
55771;DHT22;41687;-33.234;-60.334;2023-12-22T00:05:32;23.90;75.10
55771;DHT22;41687;-33.234;-60.334;2023-12-22T00:08:00;24.00;75.30
55771;DHT22;41687;-33.234;-60.334;2023-12-22T00:10:27;24.00;75.80
55771;DHT22;41687;-33.234;-60.334;2023-12-22T00:12:55;23.90;75.60
55771;DHT22;41687;-33.234;-60.334;2023-12-22T00:15:23;23.90;75.60
55771;DHT22;41687;-33.234;-60.334;2023-12-22T00:17:50;23.80;76.00
55771;DHT22;41687;-33.234;-60.334;2023-12-22T00:20:18;23.90;76.10
55771;DHT22;41687;-33.234;-60.334;2023-12-22T00:22:46;23.80;76.00
55771;DHT22;41687;-33.234;-60.334;2023-12-22T00:25:14;23.80;76.30
55771;DHT22;41687;-33.234;-60.334;2023-12-22T00:27:41;23.80;76.50
55771;DHT22;41687;-33.234;-60.334;2023-12-22T00:30:09;23.80;76.50
55771;DHT22;41687;-33.234;-60.334;2023-12-22T00:32:38;23.80;76.50
55771;DHT22;41687;-33.234;-60.334;2023-12-22T00:35:05;23.80;76.70
55771;DHT22;41687;-33.234;-60.334;2023-12-22T00:37:33;23.80;77.10
55771;DHT22;41687;-33.234;-60.334;2023-12-22T00:40:00;23.80;77.30
55771;DHT22;41687;-33.234;-60.334;2023-12-22T00:42:29;23.70;77.40
55771;DHT22;41687;-33.234;-60.334;2023-12-22T00:44:57;23.70;77.80
55771;DHT22;41687;-33.234;-60.334;2023-12-22T00:47:25;23.70;78.00
55771;DHT22;41687;-33.234;-60.334;2023-12-22T00:49:53;23.70;78.20
55771;DHT22;41687;-33.234;-60.334;2023-12-22T00:52:21;23.80;78.50
55771;DHT22;41687;-33.234;-60.334;2023-12-22T00:54:49;23.70;78.40
55771;DHT22;41687;-33.234;-60.334;2023-12-22T00:57:16;23.70;79.00
55771;DHT22;41687;-33.234;-60.334;2023-12-22T00:59:44;23.70;79.30
55771;DHT22;41687;-33.234;-60.334;2023-12-22T01:02:15;23.70;79.60
55771;DHT22;41687;-33.234;-60.334;2023-12-22T01:04:43;23.70;79.70
55771;DHT22;41687;-33.234;-60.334;2023-12-22T01:07:11;23.80;79.90
55771;DHT22;41687;-33.234;-60.334;2023-12-22T01:09:39;23.70;80.40
55771;DHT22;41687;-33.234;-60.334;2023-12-22T01:12:07;23.70;81.00
55771;DHT22;41687;-33.234;-60.334;2023-12-22T01:14:37;23.70;81.60
55771;DHT22;41687;-33.234;-60.334;2023-12-22T01:17:04;23.70;81.80
55771;DHT22;41687;-33.234;-60.334;2023-12-22T01:19:32;23.70;82.60
55771;DHT22;41687;-33.234;-60.334;2023-12-22T01:21:59;23.60;83.90
55771;DHT22;41687;-33.234;-60.334;2023-12-22T01:24:27;23.50;85.50
55771;DHT22;41687;-33.234;-60.334;2023-12-22T01:26:55;23.50;86.90
55771;DHT22;41687;-33.234;-60.334;2023-12-22T01:29:22;23.50;87.90
55771;DHT22;41687;-33.234;-60.334;2023-12-22T01:31:50;23.50;89.20
55771;DHT22;41687;-33.234;-60.334;2023-12-22T01:34:18;23.50;90.00
55771;DHT22;41687;-33.234;-60.334;2023-12-22T01:36:46;23.50;90.70
55771;DHT22;41687;-33.234;-60.334;2023-12-22T01:39:16;23.50;91.10
55771;DHT22;41687;-33.234;-60.334;2023-12-22T01:41:45;23.50;92.20
55771;DHT22;41687;-33.234;-60.334;2023-12-22T01:44:12;23.50;92.20
55771;DHT22;41687;-33.234;-60.334;2023-12-22T01:46:40;23.40;92.10
55771;DHT22;41687;-33.234;-60.334;2023-12-22T01:49:08;23.40;91.90
55771;DHT22;41687;-33.234;-60.334;2023-12-22T01:51:37;23.40;91.70
55771;DHT22;41687;-33.234;-60.334;2023-12-22T01:54:10;23.40;91.10
55771;DHT22;41687;-33.234;-60.334;2023-12-22T01:56:38;23.40;90.90
55771;DHT22;41687;-33.234;-60.334;2023-12-22T01:59:07;23.40;90.60
55771;DHT22;41687;-33.234;-60.334;2023-12-22T02:01:35;23.40;90.60
55771;DHT22;41687;-33.234;-60.334;2023-12-22T02:04:03;23.40;90.50
55771;DHT22;41687;-33.234;-60.334;2023-12-22T02:06:31;23.40;90.30
55771;DHT22;41687;-33.234;-60.334;2023-12-22T02:09:01;23.40;90.30
55771;DHT22;41687;-33.234;-60.334;2023-12-22T02:11:30;23.30;90.20
55771;DHT22;41687;-33.234;-60.334;2023-12-22T02:13:58;23.30;90.20
55771;DHT22;41687;-33.234;-60.334;2023-12-22T02:22:04;23.30;90.70
55771;DHT22;41687;-33.234;-60.334;2023-12-22T02:24:32;23.30;90.60
55771;DHT22;41687;-33.234;-60.334;2023-12-22T02:30:09;23.30;91.00
55771;DHT22;41687;-33.234;-60.334;2023-12-22T02:32:41;23.30;92.30
55771;DHT22;41687;-33.234;-60.334;2023-12-22T02:35:19;23.20;92.20
55771;DHT22;41687;-33.234;-60.334;2023-12-22T02:37:49;23.20;92.80
55771;DHT22;41687;-33.234;-60.334;2023-12-22T02:40:20;23.20;92.80
55771;DHT22;41687;-33.234;-60.334;2023-12-22T02:42:48;23.20;93.00
55771;DHT22;41687;-33.234;-60.334;2023-12-22T02:45:17;23.20;93.10
55771;DHT22;41687;-33.234;-60.334;2023-12-22T02:47:46;23.20;93.30
55771;DHT22;41687;-33.234;-60.334;2023-12-22T02:50:15;23.20;93.70
55771;DHT22;41687;-33.234;-60.334;2023-12-22T02:52:44;23.20;93.60
55771;DHT22;41687;-33.234;-60.334;2023-12-22T02:55:11;23.20;93.60
55771;DHT22;41687;-33.234;-60.334;2023-12-22T02:57:39;23.20;93.80
55771;DHT22;41687;-33.234;-60.334;2023-12-22T03:00:07;23.10;94.10
55771;DHT22;41687;-33.234;-60.334;2023-12-22T03:02:35;23.10;94.10
55771;DHT22;41687;-33.234;-60.334;2023-12-22T03:05:03;23.10;94.20
55771;DHT22;41687;-33.234;-60.334;2023-12-22T03:07:31;23.10;94.20
55771;DHT22;41687;-33.234;-60.334;2023-12-22T03:09:59;23.10;94.20
55771;DHT22;41687;-33.234;-60.334;2023-12-22T03:12:27;23.10;94.30
55771;DHT22;41687;-33.234;-60.334;2023-12-22T03:14:54;23.10;94.10
55771;DHT22;41687;-33.234;-60.334;2023-12-22T03:17:22;23.10;94.20
55771;DHT22;41687;-33.234;-60.334;2023-12-22T03:19:49;23.10;94.40
55771;DHT22;41687;-33.234;-60.334;2023-12-22T03:22:18;23.10;93.80
55771;DHT22;41687;-33.234;-60.334;2023-12-22T03:24:45;23.10;94.10
55771;DHT22;41687;-33.234;-60.334;2023-12-22T03:27:13;23.00;93.70
55771;DHT22;41687;-33.234;-60.334;2023-12-22T03:29:44;23.00;93.50
55771;DHT22;41687;-33.234;-60.334;2023-12-22T03:32:11;23.00;93.40
55771;DHT22;41687;-33.234;-60.334;2023-12-22T03:34:39;23.00;93.20
55771;DHT22;41687;-33.234;-60.334;2023-12-22T03:37:08;22.90;92.70
55771;DHT22;41687;-33.234;-60.334;2023-12-22T03:39:36;22.90;92.40
55771;DHT22;41687;-33.234;-60.334;2023-12-22T03:42:04;22.90;92.10
55771;DHT22;41687;-33.234;-60.334;2023-12-22T03:44:31;22.90;91.50
55771;DHT22;41687;-33.234;-60.334;2023-12-22T03:46:59;22.90;90.90
55771;DHT22;41687;-33.234;-60.334;2023-12-22T03:49:27;22.80;90.70
55771;DHT22;41687;-33.234;-60.334;2023-12-22T03:51:54;22.80;90.40
55771;DHT22;41687;-33.234;-60.334;2023-12-22T03:54:22;22.80;90.20
55771;DHT22;41687;-33.234;-60.334;2023-12-22T03:56:49;22.80;90.00
55771;DHT22;41687;-33.234;-60.334;2023-12-22T03:59:18;22.80;89.60
55771;DHT22;41687;-33.234;-60.334;2023-12-22T04:01:51;22.80;89.60
55771;DHT22;41687;-33.234;-60.334;2023-12-22T04:04:22;22.80;89.00
55771;DHT22;41687;-33.234;-60.334;2023-12-22T04:06:51;22.70;89.10
55771;DHT22;41687;-33.234;-60.334;2023-12-22T04:09:18;22.70;88.70
55771;DHT22;41687;-33.234;-60.334;2023-12-22T04:11:46;22.80;88.60
55771;DHT22;41687;-33.234;-60.334;2023-12-22T04:14:17;22.70;88.60
55771;DHT22;41687;-33.234;-60.334;2023-12-22T04:16:45;22.70;88.00
55771;DHT22;41687;-33.234;-60.334;2023-12-22T04:19:13;22.70;88.30
55771;DHT22;41687;-33.234;-60.334;2023-12-22T04:21:40;22.70;89.00
55771;DHT22;41687;-33.234;-60.334;2023-12-22T04:24:08;22.70;88.50
55771;DHT22;41687;-33.234;-60.334;2023-12-22T04:26:37;22.60;88.30
55771;DHT22;41687;-33.234;-60.334;2023-12-22T04:29:04;22.60;88.60
55771;DHT22;41687;-33.234;-60.334;2023-12-22T04:31:32;22.70;88.10
55771;DHT22;41687;-33.234;-60.334;2023-12-22T04:34:00;22.70;88.00
55771;DHT22;41687;-33.234;-60.334;2023-12-22T04:36:28;22.70;88.00
55771;DHT22;41687;-33.234;-60.334;2023-12-22T04:38:56;22.60;87.80
55771;DHT22;41687;-33.234;-60.334;2023-12-22T04:41:25;22.60;88.30
55771;DHT22;41687;-33.234;-60.334;2023-12-22T04:43:53;22.60;88.30
55771;DHT22;41687;-33.234;-60.334;2023-12-22T04:46:21;22.50;89.20
55771;DHT22;41687;-33.234;-60.334;2023-12-22T04:48:48;22.50;89.10
55771;DHT22;41687;-33.234;-60.334;2023-12-22T04:51:16;22.50;89.50
55771;DHT22;41687;-33.234;-60.334;2023-12-22T04:53:44;22.50;89.70
55771;DHT22;41687;-33.234;-60.334;2023-12-22T04:56:12;22.60;89.70
55771;DHT22;41687;-33.234;-60.334;2023-12-22T04:58:39;22.50;90.00
55771;DHT22;41687;-33.234;-60.334;2023-12-22T05:01:07;22.50;90.40
55771;DHT22;41687;-33.234;-60.334;2023-12-22T05:03:34;22.50;90.60
55771;DHT22;41687;-33.234;-60.334;2023-12-22T05:06:02;22.40;90.80
55771;DHT22;41687;-33.234;-60.334;2023-12-22T05:08:30;22.40;91.00
55771;DHT22;41687;-33.234;-60.334;2023-12-22T05:10:58;22.40;91.30
55771;DHT22;41687;-33.234;-60.334;2023-12-22T05:13:25;22.40;91.60
55771;DHT22;41687;-33.234;-60.334;2023-12-22T05:15:54;22.30;92.00
55771;DHT22;41687;-33.234;-60.334;2023-12-22T05:18:21;22.40;92.10
55771;DHT22;41687;-33.234;-60.334;2023-12-22T05:20:49;22.30;92.60
55771;DHT22;41687;-33.234;-60.334;2023-12-22T05:23:17;22.40;92.70
55771;DHT22;41687;-33.234;-60.334;2023-12-22T05:25:44;22.40;92.80
55771;DHT22;41687;-33.234;-60.334;2023-12-22T05:28:12;22.40;93.10
55771;DHT22;41687;-33.234;-60.334;2023-12-22T05:30:40;22.30;93.20
55771;DHT22;41687;-33.234;-60.334;2023-12-22T05:33:07;22.30;93.20
55771;DHT22;41687;-33.234;-60.334;2023-12-22T05:35:35;22.30;93.50
55771;DHT22;41687;-33.234;-60.334;2023-12-22T05:38:03;22.30;94.10
55771;DHT22;41687;-33.234;-60.334;2023-12-22T05:40:34;22.30;93.80
55771;DHT22;41687;-33.234;-60.334;2023-12-22T05:43:01;22.30;94.00
55771;DHT22;41687;-33.234;-60.334;2023-12-22T05:45:29;22.30;94.20
55771;DHT22;41687;-33.234;-60.334;2023-12-22T05:47:57;22.20;94.40
55771;DHT22;41687;-33.234;-60.334;2023-12-22T05:50:25;22.20;94.50
55771;DHT22;41687;-33.234;-60.334;2023-12-22T05:52:53;22.20;94.60
55771;DHT22;41687;-33.234;-60.334;2023-12-22T05:55:21;22.20;94.40
55771;DHT22;41687;-33.234;-60.334;2023-12-22T05:57:49;22.20;93.50
55771;DHT22;41687;-33.234;-60.334;2023-12-22T06:00:16;22.20;93.50
55771;DHT22;41687;-33.234;-60.334;2023-12-22T06:02:44;22.20;93.20
55771;DHT22;41687;-33.234;-60.334;2023-12-22T06:05:11;22.20;93.50
55771;DHT22;41687;-33.234;-60.334;2023-12-22T06:07:40;22.20;93.50
55771;DHT22;41687;-33.234;-60.334;2023-12-22T06:10:08;22.20;93.60
55771;DHT22;41687;-33.234;-60.334;2023-12-22T06:12:37;22.20;93.70
55771;DHT22;41687;-33.234;-60.334;2023-12-22T06:15:05;22.10;93.80
55771;DHT22;41687;-33.234;-60.334;2023-12-22T06:17:33;22.10;94.00
55771;DHT22;41687;-33.234;-60.334;2023-12-22T06:20:00;22.10;94.10
55771;DHT22;41687;-33.234;-60.334;2023-12-22T06:22:28;22.00;94.30
55771;DHT22;41687;-33.234;-60.334;2023-12-22T06:24:55;22.00;94.50
55771;DHT22;41687;-33.234;-60.334;2023-12-22T06:27:23;22.00;94.50
55771;DHT22;41687;-33.234;-60.334;2023-12-22T06:29:52;22.10;94.70
55771;DHT22;41687;-33.234;-60.334;2023-12-22T06:32:19;22.00;94.80
55771;DHT22;41687;-33.234;-60.334;2023-12-22T06:34:47;22.10;94.90
55771;DHT22;41687;-33.234;-60.334;2023-12-22T06:37:15;22.10;95.00
55771;DHT22;41687;-33.234;-60.334;2023-12-22T06:39:43;22.10;95.00
55771;DHT22;41687;-33.234;-60.334;2023-12-22T06:42:11;22.10;95.00
55771;DHT22;41687;-33.234;-60.334;2023-12-22T06:44:43;21.90;95.50
55771;DHT22;41687;-33.234;-60.334;2023-12-22T06:47:11;22.00;95.50
55771;DHT22;41687;-33.234;-60.334;2023-12-22T06:49:38;22.00;95.20
55771;DHT22;41687;-33.234;-60.334;2023-12-22T06:52:06;22.00;95.30
55771;DHT22;41687;-33.234;-60.334;2023-12-22T06:54:34;22.00;95.00
55771;DHT22;41687;-33.234;-60.334;2023-12-22T06:57:03;22.00;95.20
55771;DHT22;41687;-33.234;-60.334;2023-12-22T06:59:30;22.00;95.00
55771;DHT22;41687;-33.234;-60.334;2023-12-22T07:01:58;21.90;95.10
55771;DHT22;41687;-33.234;-60.334;2023-12-22T07:05:00;21.90;95.20
55771;DHT22;41687;-33.234;-60.334;2023-12-22T07:07:34;21.90;95.40
55771;DHT22;41687;-33.234;-60.334;2023-12-22T07:10:02;21.90;95.00
55771;DHT22;41687;-33.234;-60.334;2023-12-22T07:12:30;21.90;94.80
55771;DHT22;41687;-33.234;-60.334;2023-12-22T07:14:57;21.90;94.90
55771;DHT22;41687;-33.234;-60.334;2023-12-22T07:17:25;21.90;94.40
55771;DHT22;41687;-33.234;-60.334;2023-12-22T07:19:52;21.80;94.50
55771;DHT22;41687;-33.234;-60.334;2023-12-22T07:22:24;21.80;94.20
55771;DHT22;41687;-33.234;-60.334;2023-12-22T07:24:52;21.80;94.40
55771;DHT22;41687;-33.234;-60.334;2023-12-22T07:27:20;21.80;94.30
55771;DHT22;41687;-33.234;-60.334;2023-12-22T07:29:48;21.80;94.60
55771;DHT22;41687;-33.234;-60.334;2023-12-22T07:32:17;21.80;94.60
55771;DHT22;41687;-33.234;-60.334;2023-12-22T07:34:44;21.80;94.70
55771;DHT22;41687;-33.234;-60.334;2023-12-22T07:37:12;21.70;94.70
55771;DHT22;41687;-33.234;-60.334;2023-12-22T07:39:40;21.70;94.40
55771;DHT22;41687;-33.234;-60.334;2023-12-22T07:42:08;21.70;93.90
55771;DHT22;41687;-33.234;-60.334;2023-12-22T07:44:36;21.70;93.40
55771;DHT22;41687;-33.234;-60.334;2023-12-22T07:47:04;21.70;93.00
55771;DHT22;41687;-33.234;-60.334;2023-12-22T07:49:34;21.70;93.20
55771;DHT22;41687;-33.234;-60.334;2023-12-22T07:52:01;21.60;93.30
55771;DHT22;41687;-33.234;-60.334;2023-12-22T07:54:29;21.60;93.80
55771;DHT22;41687;-33.234;-60.334;2023-12-22T07:56:57;21.70;93.70
55771;DHT22;41687;-33.234;-60.334;2023-12-22T07:59:24;21.70;93.90
55771;DHT22;41687;-33.234;-60.334;2023-12-22T08:01:52;21.70;94.60
55771;DHT22;41687;-33.234;-60.334;2023-12-22T08:04:20;21.60;95.20
55771;DHT22;41687;-33.234;-60.334;2023-12-22T08:06:47;21.60;95.50
55771;DHT22;41687;-33.234;-60.334;2023-12-22T08:09:15;21.60;95.60
55771;DHT22;41687;-33.234;-60.334;2023-12-22T08:11:42;21.60;95.50
55771;DHT22;41687;-33.234;-60.334;2023-12-22T08:14:13;21.60;95.00
55771;DHT22;41687;-33.234;-60.334;2023-12-22T08:16:41;21.60;94.90
55771;DHT22;41687;-33.234;-60.334;2023-12-22T08:19:10;21.50;94.90
55771;DHT22;41687;-33.234;-60.334;2023-12-22T08:21:38;21.50;94.70
55771;DHT22;41687;-33.234;-60.334;2023-12-22T08:24:06;21.50;95.10
55771;DHT22;41687;-33.234;-60.334;2023-12-22T08:26:34;21.40;95.10
55771;DHT22;41687;-33.234;-60.334;2023-12-22T08:29:01;21.40;95.30
55771;DHT22;41687;-33.234;-60.334;2023-12-22T08:31:29;21.40;95.20
55771;DHT22;41687;-33.234;-60.334;2023-12-22T08:33:57;21.40;95.00
55771;DHT22;41687;-33.234;-60.334;2023-12-22T08:36:24;21.40;95.40
55771;DHT22;41687;-33.234;-60.334;2023-12-22T08:38:53;21.40;95.70
55771;DHT22;41687;-33.234;-60.334;2023-12-22T08:41:23;21.40;95.60
55771;DHT22;41687;-33.234;-60.334;2023-12-22T08:43:51;21.40;96.00
55771;DHT22;41687;-33.234;-60.334;2023-12-22T08:46:18;21.40;96.50
55771;DHT22;41687;-33.234;-60.334;2023-12-22T08:48:46;21.50;97.10
55771;DHT22;41687;-33.234;-60.334;2023-12-22T08:51:14;21.50;97.40
55771;DHT22;41687;-33.234;-60.334;2023-12-22T08:53:42;21.40;97.90
55771;DHT22;41687;-33.234;-60.334;2023-12-22T08:56:09;21.50;98.20
55771;DHT22;41687;-33.234;-60.334;2023-12-22T08:58:37;21.40;98.80
55771;DHT22;41687;-33.234;-60.334;2023-12-22T09:01:05;21.40;99.70
55771;DHT22;41687;-33.234;-60.334;2023-12-22T09:03:34;21.50;99.90
55771;DHT22;41687;-33.234;-60.334;2023-12-22T09:06:02;21.40;99.90
55771;DHT22;41687;-33.234;-60.334;2023-12-22T09:08:29;21.40;99.90
55771;DHT22;41687;-33.234;-60.334;2023-12-22T09:10:57;21.50;99.90
55771;DHT22;41687;-33.234;-60.334;2023-12-22T09:13:24;21.50;99.90
55771;DHT22;41687;-33.234;-60.334;2023-12-22T09:15:52;21.50;99.90
55771;DHT22;41687;-33.234;-60.334;2023-12-22T09:18:20;21.50;99.90
55771;DHT22;41687;-33.234;-60.334;2023-12-22T09:20:48;21.50;99.90
55771;DHT22;41687;-33.234;-60.334;2023-12-22T09:23:16;21.50;99.90
55771;DHT22;41687;-33.234;-60.334;2023-12-22T09:25:43;21.50;99.90
55771;DHT22;41687;-33.234;-60.334;2023-12-22T09:28:11;21.60;99.90
55771;DHT22;41687;-33.234;-60.334;2023-12-22T09:30:39;21.60;99.90
55771;DHT22;41687;-33.234;-60.334;2023-12-22T09:33:07;21.60;99.90
55771;DHT22;41687;-33.234;-60.334;2023-12-22T09:35:35;21.60;99.90
55771;DHT22;41687;-33.234;-60.334;2023-12-22T09:38:04;21.60;99.90
55771;DHT22;41687;-33.234;-60.334;2023-12-22T09:40:33;21.60;99.90
55771;DHT22;41687;-33.234;-60.334;2023-12-22T09:43:02;21.70;99.90
55771;DHT22;41687;-33.234;-60.334;2023-12-22T09:45:33;21.70;99.90
55771;DHT22;41687;-33.234;-60.334;2023-12-22T09:48:02;21.70;99.90
55771;DHT22;41687;-33.234;-60.334;2023-12-22T09:50:30;21.70;99.90
55771;DHT22;41687;-33.234;-60.334;2023-12-22T09:52:58;21.70;99.90
55771;DHT22;41687;-33.234;-60.334;2023-12-22T09:55:27;21.70;99.90
55771;DHT22;41687;-33.234;-60.334;2023-12-22T09:57:57;21.70;99.90
55771;DHT22;41687;-33.234;-60.334;2023-12-22T10:00:26;21.70;99.90
55771;DHT22;41687;-33.234;-60.334;2023-12-22T10:02:55;21.80;99.90
55771;DHT22;41687;-33.234;-60.334;2023-12-22T10:05:23;21.80;98.70
55771;DHT22;41687;-33.234;-60.334;2023-12-22T10:07:51;21.90;95.60
55771;DHT22;41687;-33.234;-60.334;2023-12-22T10:10:18;22.00;94.10
55771;DHT22;41687;-33.234;-60.334;2023-12-22T10:12:47;22.00;93.00
55771;DHT22;41687;-33.234;-60.334;2023-12-22T10:15:15;22.10;92.40
55771;DHT22;41687;-33.234;-60.334;2023-12-22T10:17:44;22.10;92.50
55771;DHT22;41687;-33.234;-60.334;2023-12-22T10:20:11;22.20;92.60
55771;DHT22;41687;-33.234;-60.334;2023-12-22T10:22:39;22.30;93.30
55771;DHT22;41687;-33.234;-60.334;2023-12-22T10:25:08;22.40;93.30
55771;DHT22;41687;-33.234;-60.334;2023-12-22T10:27:37;22.50;93.40
55771;DHT22;41687;-33.234;-60.334;2023-12-22T10:30:04;22.50;92.10
55771;DHT22;41687;-33.234;-60.334;2023-12-22T10:32:32;22.50;91.70
55771;DHT22;41687;-33.234;-60.334;2023-12-22T10:35:00;22.60;90.40
55771;DHT22;41687;-33.234;-60.334;2023-12-22T10:37:28;22.60;89.60
55771;DHT22;41687;-33.234;-60.334;2023-12-22T10:39:55;22.80;90.00
55771;DHT22;41687;-33.234;-60.334;2023-12-22T10:42:23;22.80;90.10
55771;DHT22;41687;-33.234;-60.334;2023-12-22T10:44:51;22.80;89.90
55771;DHT22;41687;-33.234;-60.334;2023-12-22T10:47:20;22.80;90.20
55771;DHT22;41687;-33.234;-60.334;2023-12-22T10:49:49;22.80;90.20
55771;DHT22;41687;-33.234;-60.334;2023-12-22T10:52:17;22.70;90.30
55771;DHT22;41687;-33.234;-60.334;2023-12-22T10:54:45;22.80;90.00
55771;DHT22;41687;-33.234;-60.334;2023-12-22T10:57:13;23.00;90.00
55771;DHT22;41687;-33.234;-60.334;2023-12-22T10:59:49;23.10;88.40
55771;DHT22;41687;-33.234;-60.334;2023-12-22T11:02:19;23.20;88.60
55771;DHT22;41687;-33.234;-60.334;2023-12-22T11:05:02;23.30;88.10
55771;DHT22;41687;-33.234;-60.334;2023-12-22T11:07:36;23.40;86.90
55771;DHT22;41687;-33.234;-60.334;2023-12-22T11:10:06;23.50;86.30
55771;DHT22;41687;-33.234;-60.334;2023-12-22T11:12:38;23.70;86.00
55771;DHT22;41687;-33.234;-60.334;2023-12-22T11:15:06;23.70;83.60
55771;DHT22;41687;-33.234;-60.334;2023-12-22T11:17:34;23.70;84.80
55771;DHT22;41687;-33.234;-60.334;2023-12-22T11:20:03;23.80;85.20
55771;DHT22;41687;-33.234;-60.334;2023-12-22T11:22:32;23.80;84.70
55771;DHT22;41687;-33.234;-60.334;2023-12-22T11:25:00;23.90;84.50
55771;DHT22;41687;-33.234;-60.334;2023-12-22T11:27:29;24.00;84.50
55771;DHT22;41687;-33.234;-60.334;2023-12-22T11:30:01;24.20;85.60
55771;DHT22;41687;-33.234;-60.334;2023-12-22T11:32:29;24.30;84.80
55771;DHT22;41687;-33.234;-60.334;2023-12-22T11:35:00;24.20;83.20
55771;DHT22;41687;-33.234;-60.334;2023-12-22T11:37:27;24.30;83.90
55771;DHT22;41687;-33.234;-60.334;2023-12-22T11:40:00;24.20;83.20
55771;DHT22;41687;-33.234;-60.334;2023-12-22T11:42:34;24.20;83.70
55771;DHT22;41687;-33.234;-60.334;2023-12-22T11:45:06;24.20;81.90
55771;DHT22;41687;-33.234;-60.334;2023-12-22T11:47:37;24.20;81.10
55771;DHT22;41687;-33.234;-60.334;2023-12-22T11:50:09;24.20;79.30
55771;DHT22;41687;-33.234;-60.334;2023-12-22T11:52:38;24.30;76.80
55771;DHT22;41687;-33.234;-60.334;2023-12-22T11:55:08;24.50;78.70
55771;DHT22;41687;-33.234;-60.334;2023-12-22T11:57:37;24.30;77.00
55771;DHT22;41687;-33.234;-60.334;2023-12-22T12:02:56;24.40;76.60
55771;DHT22;41687;-33.234;-60.334;2023-12-22T12:05:24;24.20;77.20
55771;DHT22;41687;-33.234;-60.334;2023-12-22T12:07:51;23.90;76.20
55771;DHT22;41687;-33.234;-60.334;2023-12-22T12:13:13;24.30;79.40
55771;DHT22;41687;-33.234;-60.334;2023-12-22T12:15:42;24.30;78.10
55771;DHT22;41687;-33.234;-60.334;2023-12-22T12:18:10;24.20;80.40
55771;DHT22;41687;-33.234;-60.334;2023-12-22T12:20:39;24.40;78.30
55771;DHT22;41687;-33.234;-60.334;2023-12-22T12:23:07;24.30;78.40
55771;DHT22;41687;-33.234;-60.334;2023-12-22T12:25:35;24.30;78.10
55771;DHT22;41687;-33.234;-60.334;2023-12-22T12:28:07;24.60;78.10
55771;DHT22;41687;-33.234;-60.334;2023-12-22T12:30:37;24.80;76.00
55771;DHT22;41687;-33.234;-60.334;2023-12-22T12:33:08;25.10;75.40
55771;DHT22;41687;-33.234;-60.334;2023-12-22T12:35:41;25.30;73.70
55771;DHT22;41687;-33.234;-60.334;2023-12-22T12:38:11;25.40;72.80
55771;DHT22;41687;-33.234;-60.334;2023-12-22T12:40:40;25.50;73.00
55771;DHT22;41687;-33.234;-60.334;2023-12-22T12:43:08;25.60;73.10
55771;DHT22;41687;-33.234;-60.334;2023-12-22T12:45:36;25.70;72.10
55771;DHT22;41687;-33.234;-60.334;2023-12-22T12:48:04;25.50;72.00
55771;DHT22;41687;-33.234;-60.334;2023-12-22T12:50:31;25.60;74.10
55771;DHT22;41687;-33.234;-60.334;2023-12-22T12:53:00;25.60;71.10
55771;DHT22;41687;-33.234;-60.334;2023-12-22T12:55:27;25.50;72.70
55771;DHT22;41687;-33.234;-60.334;2023-12-22T12:57:55;25.40;75.80
55771;DHT22;41687;-33.234;-60.334;2023-12-22T13:00:27;25.80;74.60
55771;DHT22;41687;-33.234;-60.334;2023-12-22T13:02:56;25.80;71.10
55771;DHT22;41687;-33.234;-60.334;2023-12-22T13:05:27;25.80;74.00
55771;DHT22;41687;-33.234;-60.334;2023-12-22T13:08:07;25.90;72.00
55771;DHT22;41687;-33.234;-60.334;2023-12-22T13:10:36;25.70;69.30
55771;DHT22;41687;-33.234;-60.334;2023-12-22T13:13:04;26.00;71.40
55771;DHT22;41687;-33.234;-60.334;2023-12-22T13:15:32;26.40;71.20
55771;DHT22;41687;-33.234;-60.334;2023-12-22T13:18:00;26.40;70.90
55771;DHT22;41687;-33.234;-60.334;2023-12-22T13:20:29;26.40;69.10
55771;DHT22;41687;-33.234;-60.334;2023-12-22T13:22:56;26.90;69.00
55771;DHT22;41687;-33.234;-60.334;2023-12-22T13:25:24;27.00;67.20
55771;DHT22;41687;-33.234;-60.334;2023-12-22T13:27:52;27.00;67.10
55771;DHT22;41687;-33.234;-60.334;2023-12-22T13:30:52;26.20;67.20
55771;DHT22;41687;-33.234;-60.334;2023-12-22T13:33:20;26.40;69.20
55771;DHT22;41687;-33.234;-60.334;2023-12-22T13:35:48;26.20;66.40
55771;DHT22;41687;-33.234;-60.334;2023-12-22T13:38:17;26.20;67.40
55771;DHT22;41687;-33.234;-60.334;2023-12-22T13:40:47;26.00;68.30
55771;DHT22;41687;-33.234;-60.334;2023-12-22T13:43:15;26.30;66.80
55771;DHT22;41687;-33.234;-60.334;2023-12-22T13:45:43;27.00;67.00
55771;DHT22;41687;-33.234;-60.334;2023-12-22T13:48:11;27.50;67.00
55771;DHT22;41687;-33.234;-60.334;2023-12-22T13:50:39;27.80;66.20
55771;DHT22;41687;-33.234;-60.334;2023-12-22T13:53:10;27.30;61.30
55771;DHT22;41687;-33.234;-60.334;2023-12-22T13:55:39;26.80;61.50
55771;DHT22;41687;-33.234;-60.334;2023-12-22T13:58:07;26.40;62.80
55771;DHT22;41687;-33.234;-60.334;2023-12-22T14:00:36;26.40;64.20
55771;DHT22;41687;-33.234;-60.334;2023-12-22T14:03:04;26.60;65.60
55771;DHT22;41687;-33.234;-60.334;2023-12-22T14:05:31;27.30;64.30
55771;DHT22;41687;-33.234;-60.334;2023-12-22T14:07:59;26.80;64.00
55771;DHT22;41687;-33.234;-60.334;2023-12-22T14:10:26;26.60;64.60
55771;DHT22;41687;-33.234;-60.334;2023-12-22T14:12:54;26.50;64.40
55771;DHT22;41687;-33.234;-60.334;2023-12-22T14:15:22;26.30;63.60
55771;DHT22;41687;-33.234;-60.334;2023-12-22T14:17:50;26.80;66.20
55771;DHT22;41687;-33.234;-60.334;2023-12-22T14:20:18;26.80;63.10
55771;DHT22;41687;-33.234;-60.334;2023-12-22T14:22:46;26.50;62.50
55771;DHT22;41687;-33.234;-60.334;2023-12-22T14:25:14;27.00;65.10
55771;DHT22;41687;-33.234;-60.334;2023-12-22T14:27:41;27.20;63.70
55771;DHT22;41687;-33.234;-60.334;2023-12-22T14:30:10;27.00;64.90
55771;DHT22;41687;-33.234;-60.334;2023-12-22T14:32:37;26.50;61.60
55771;DHT22;41687;-33.234;-60.334;2023-12-22T14:35:06;26.80;64.60
55771;DHT22;41687;-33.234;-60.334;2023-12-22T14:37:33;26.50;62.60
55771;DHT22;41687;-33.234;-60.334;2023-12-22T14:40:01;26.40;62.50
55771;DHT22;41687;-33.234;-60.334;2023-12-22T14:42:29;26.90;59.90
55771;DHT22;41687;-33.234;-60.334;2023-12-22T14:44:57;26.50;59.20
55771;DHT22;41687;-33.234;-60.334;2023-12-22T14:47:24;27.00;60.30
55771;DHT22;41687;-33.234;-60.334;2023-12-22T14:49:52;27.90;60.10
55771;DHT22;41687;-33.234;-60.334;2023-12-22T14:52:19;27.30;56.00
55771;DHT22;41687;-33.234;-60.334;2023-12-22T14:54:48;27.00;55.10
55771;DHT22;41687;-33.234;-60.334;2023-12-22T14:57:15;26.90;57.60
55771;DHT22;41687;-33.234;-60.334;2023-12-22T14:59:45;27.10;58.10
55771;DHT22;41687;-33.234;-60.334;2023-12-22T15:02:13;27.60;61.80
55771;DHT22;41687;-33.234;-60.334;2023-12-22T15:04:41;27.70;58.20
55771;DHT22;41687;-33.234;-60.334;2023-12-22T15:07:08;27.70;58.00
55771;DHT22;41687;-33.234;-60.334;2023-12-22T15:09:39;27.60;56.00